sensor_id;sensor_type;location;lat;lon;timestamp;pressure;altitude;pressure_sealevel;temperature;humidity
35489;BME280;21602;55.670;37.578;2022-11-03T00:00:52;99104.47;;;-0.24;85.33
35489;BME280;21602;55.670;37.578;2022-11-03T00:03:17;99108.28;;;-0.27;85.09
35489;BME280;21602;55.670;37.578;2022-11-03T00:05:43;99113.84;;;-0.22;85.13
35489;BME280;21602;55.670;37.578;2022-11-03T00:08:27;99110.53;;;-0.24;84.86
35489;BME280;21602;55.670;37.578;2022-11-03T00:10:52;99114.84;;;-0.31;85.15
35489;BME280;21602;55.670;37.578;2022-11-03T00:13:18;99111.44;;;-0.40;85.51
35489;BME280;21602;55.670;37.578;2022-11-03T00:15:47;99116.50;;;-0.38;85.39
35489;BME280;21602;55.670;37.578;2022-11-03T00:18:13;99111.91;;;-0.36;85.53
35489;BME280;21602;55.670;37.578;2022-11-03T00:20:38;99120.72;;;-0.29;85.48
35489;BME280;21602;55.670;37.578;2022-11-03T00:23:04;99110.41;;;-0.22;85.07
35489;BME280;21602;55.670;37.578;2022-11-03T00:25:29;99114.47;;;-0.20;84.98
35489;BME280;21602;55.670;37.578;2022-11-03T00:27:55;99111.84;;;-0.20;84.99
35489;BME280;21602;55.670;37.578;2022-11-03T00:30:21;99111.50;;;-0.17;84.80
35489;BME280;21602;55.670;37.578;2022-11-03T00:32:46;99118.06;;;-0.13;84.64
35489;BME280;21602;55.670;37.578;2022-11-03T00:35:12;99117.56;;;-0.08;84.68
35489;BME280;21602;55.670;37.578;2022-11-03T00:37:37;99121.81;;;-0.07;84.51
35489;BME280;21602;55.670;37.578;2022-11-03T00:40:03;99127.31;;;-0.33;84.97
35489;BME280;21602;55.670;37.578;2022-11-03T00:42:29;99126.47;;;-0.34;84.93
35489;BME280;21602;55.670;37.578;2022-11-03T00:44:54;99120.91;;;-0.31;85.18
35489;BME280;21602;55.670;37.578;2022-11-03T00:47:20;99123.72;;;-0.32;85.07
35489;BME280;21602;55.670;37.578;2022-11-03T00:49:45;99118.31;;;-0.39;85.33
35489;BME280;21602;55.670;37.578;2022-11-03T00:52:11;99118.00;;;-0.44;85.57
35489;BME280;21602;55.670;37.578;2022-11-03T00:54:36;99124.41;;;-0.46;85.69
35489;BME280;21602;55.670;37.578;2022-11-03T00:57:02;99129.47;;;-0.45;85.68
35489;BME280;21602;55.670;37.578;2022-11-03T00:59:27;99123.53;;;-0.39;85.80
35489;BME280;21602;55.670;37.578;2022-11-03T01:01:53;99130.09;;;-0.35;85.47
35489;BME280;21602;55.670;37.578;2022-11-03T01:04:18;99134.53;;;-0.35;85.50
35489;BME280;21602;55.670;37.578;2022-11-03T01:07:03;99131.25;;;-0.37;85.46
35489;BME280;21602;55.670;37.578;2022-11-03T01:09:33;99135.84;;;-0.39;85.82
35489;BME280;21602;55.670;37.578;2022-11-03T01:12:13;99131.72;;;-0.34;85.52
35489;BME280;21602;55.670;37.578;2022-11-03T01:14:43;99131.72;;;-0.34;85.75
35489;BME280;21602;55.670;37.578;2022-11-03T01:17:10;99140.41;;;-0.25;85.64
35489;BME280;21602;55.670;37.578;2022-11-03T01:19:36;99147.94;;;-0.22;85.35
35489;BME280;21602;55.670;37.578;2022-11-03T01:22:01;99143.81;;;-0.16;85.36
35489;BME280;21602;55.670;37.578;2022-11-03T01:24:27;99144.31;;;-0.13;85.28
35489;BME280;21602;55.670;37.578;2022-11-03T01:26:52;99145.25;;;-0.06;85.19
35489;BME280;21602;55.670;37.578;2022-11-03T01:29:18;99152.16;;;-0.05;84.97
35489;BME280;21602;55.670;37.578;2022-11-03T01:31:44;99143.09;;;-0.02;84.87
35489;BME280;21602;55.670;37.578;2022-11-03T01:34:14;99142.63;;;-0.06;84.78
35489;BME280;21602;55.670;37.578;2022-11-03T01:36:40;99145.94;;;-0.12;85.02
35489;BME280;21602;55.670;37.578;2022-11-03T01:39:08;99154.13;;;-0.15;85.09
35489;BME280;21602;55.670;37.578;2022-11-03T01:41:33;99148.25;;;-0.17;85.22
35489;BME280;21602;55.670;37.578;2022-11-03T01:46:39;99144.00;;;-0.26;85.30
35489;BME280;21602;55.670;37.578;2022-11-03T01:51:38;99148.69;;;-0.61;86.14
35489;BME280;21602;55.670;37.578;2022-11-03T01:54:07;99147.72;;;-0.76;86.73
35489;BME280;21602;55.670;37.578;2022-11-03T01:56:34;99151.66;;;-0.80;87.25
35489;BME280;21602;55.670;37.578;2022-11-03T01:59:01;99146.56;;;-0.82;87.12
35489;BME280;21602;55.670;37.578;2022-11-03T02:01:27;99141.19;;;-0.80;87.09
35489;BME280;21602;55.670;37.578;2022-11-03T02:03:54;99147.72;;;-0.76;87.03
35489;BME280;21602;55.670;37.578;2022-11-03T02:06:22;99143.78;;;-0.72;87.18
35489;BME280;21602;55.670;37.578;2022-11-03T02:08:57;99144.25;;;-0.68;86.78
35489;BME280;21602;55.670;37.578;2022-11-03T02:11:24;99147.56;;;-0.66;86.77
35489;BME280;21602;55.670;37.578;2022-11-03T02:14:12;99148.38;;;-0.74;86.99
35489;BME280;21602;55.670;37.578;2022-11-03T02:16:42;99136.22;;;-0.67;86.84
35489;BME280;21602;55.670;37.578;2022-11-03T02:19:16;99136.56;;;-0.70;86.57
35489;BME280;21602;55.670;37.578;2022-11-03T02:21:47;99137.91;;;-0.74;86.70
35489;BME280;21602;55.670;37.578;2022-11-03T02:24:52;99141.00;;;-0.70;86.60
35489;BME280;21602;55.670;37.578;2022-11-03T02:27:10;99139.53;;;-0.65;86.34
35489;BME280;21602;55.670;37.578;2022-11-03T02:29:35;99138.53;;;-0.56;86.35
35489;BME280;21602;55.670;37.578;2022-11-03T02:32:20;99145.84;;;-0.43;85.84
35489;BME280;21602;55.670;37.578;2022-11-03T02:35:20;99147.31;;;-0.40;85.29
35489;BME280;21602;55.670;37.578;2022-11-03T02:37:42;99141.47;;;-0.59;85.53
35489;BME280;21602;55.670;37.578;2022-11-03T02:42:39;99144.56;;;-0.55;86.05
35489;BME280;21602;55.670;37.578;2022-11-03T02:45:07;99143.91;;;-0.49;85.79
35489;BME280;21602;55.670;37.578;2022-11-03T02:47:34;99152.25;;;-0.45;85.69
35489;BME280;21602;55.670;37.578;2022-11-03T02:50:03;99147.03;;;-0.54;85.42
35489;BME280;21602;55.670;37.578;2022-11-03T02:52:35;99150.00;;;-0.57;85.61
35489;BME280;21602;55.670;37.578;2022-11-03T02:58:21;99138.25;;;-0.85;86.43
35489;BME280;21602;55.670;37.578;2022-11-03T03:00:53;99134.47;;;-0.83;86.94
35489;BME280;21602;55.670;37.578;2022-11-03T03:03:21;99137.91;;;-0.82;86.76
35489;BME280;21602;55.670;37.578;2022-11-03T03:05:49;99137.72;;;-0.72;86.81
35489;BME280;21602;55.670;37.578;2022-11-03T03:08:16;99148.69;;;-0.69;86.36
35489;BME280;21602;55.670;37.578;2022-11-03T03:10:44;99138.22;;;-0.69;86.43
35489;BME280;21602;55.670;37.578;2022-11-03T03:13:12;99145.59;;;-0.72;86.23
35489;BME280;21602;55.670;37.578;2022-11-03T03:15:49;99142.63;;;-0.86;86.63
35489;BME280;21602;55.670;37.578;2022-11-03T03:18:26;99141.34;;;-0.90;86.76
35489;BME280;21602;55.670;37.578;2022-11-03T03:21:12;99152.47;;;-0.88;86.78
35489;BME280;21602;55.670;37.578;2022-11-03T03:23:41;99150.34;;;-0.92;86.95
35489;BME280;21602;55.670;37.578;2022-11-03T03:26:27;99156.25;;;-0.98;87.20
35489;BME280;21602;55.670;37.578;2022-11-03T03:28:58;99151.66;;;-0.96;87.07
35489;BME280;21602;55.670;37.578;2022-11-03T03:31:26;99137.91;;;-0.90;86.86
35489;BME280;21602;55.670;37.578;2022-11-03T03:33:55;99144.13;;;-0.83;86.72
35489;BME280;21602;55.670;37.578;2022-11-03T03:36:23;99142.97;;;-0.72;86.60
35489;BME280;21602;55.670;37.578;2022-11-03T03:38:52;99146.06;;;-0.61;86.26
35489;BME280;21602;55.670;37.578;2022-11-03T03:41:18;99153.59;;;-0.58;85.79
35489;BME280;21602;55.670;37.578;2022-11-03T03:43:49;99156.56;;;-0.61;85.61
35489;BME280;21602;55.670;37.578;2022-11-03T03:46:19;99156.56;;;-0.61;85.62
35489;BME280;21602;55.670;37.578;2022-11-03T03:48:46;99143.47;;;-0.77;85.61
35489;BME280;21602;55.670;37.578;2022-11-03T03:51:14;99151.00;;;-0.82;86.10
35489;BME280;21602;55.670;37.578;2022-11-03T03:53:41;99154.44;;;-0.82;86.17
35489;BME280;21602;55.670;37.578;2022-11-03T03:56:06;99159.50;;;-0.72;86.27
35489;BME280;21602;55.670;37.578;2022-11-03T03:58:32;99153.25;;;-0.63;85.96
35489;BME280;21602;55.670;37.578;2022-11-03T04:00:57;99151.81;;;-0.65;85.80
35489;BME280;21602;55.670;37.578;2022-11-03T04:03:24;99150.50;;;-0.78;85.74
35489;BME280;21602;55.670;37.578;2022-11-03T04:05:49;99150.34;;;-0.84;86.00
35489;BME280;21602;55.670;37.578;2022-11-03T04:08:16;99151.66;;;-0.80;86.08
35489;BME280;21602;55.670;37.578;2022-11-03T04:10:42;99156.41;;;-0.75;86.10
35489;BME280;21602;55.670;37.578;2022-11-03T04:13:31;99157.69;;;-0.71;85.77
35489;BME280;21602;55.670;37.578;2022-11-03T04:16:15;99160.00;;;-0.68;85.58
35489;BME280;21602;55.670;37.578;2022-11-03T04:19:00;99165.41;;;-0.62;85.43
35489;BME280;21602;55.670;37.578;2022-11-03T04:21:44;99163.44;;;-0.60;85.29
35489;BME280;21602;55.670;37.578;2022-11-03T04:24:29;99164.75;;;-0.56;84.95
35489;BME280;21602;55.670;37.578;2022-11-03T04:27:00;99160.00;;;-0.52;84.53
35489;BME280;21602;55.670;37.578;2022-11-03T04:29:26;99163.25;;;-0.50;84.48
35489;BME280;21602;55.670;37.578;2022-11-03T04:31:52;99166.38;;;-0.55;84.58
35489;BME280;21602;55.670;37.578;2022-11-03T04:34:18;99169.00;;;-0.55;84.84
35489;BME280;21602;55.670;37.578;2022-11-03T04:36:46;99170.00;;;-0.64;84.98
35489;BME280;21602;55.670;37.578;2022-11-03T04:39:14;99175.75;;;-0.85;85.28
35489;BME280;21602;55.670;37.578;2022-11-03T04:41:40;99171.28;;;-0.76;85.72
35489;BME280;21602;55.670;37.578;2022-11-03T04:44:07;99173.78;;;-0.66;85.35
35489;BME280;21602;55.670;37.578;2022-11-03T04:46:35;99173.59;;;-0.57;85.17
35489;BME280;21602;55.670;37.578;2022-11-03T04:49:01;99174.72;;;-0.51;85.01
35489;BME280;21602;55.670;37.578;2022-11-03T04:51:30;99169.47;;;-0.51;84.70
35489;BME280;21602;55.670;37.578;2022-11-03T04:54:03;99177.50;;;-0.53;84.71
35489;BME280;21602;55.670;37.578;2022-11-03T04:56:31;99173.09;;;-0.60;84.97
35489;BME280;21602;55.670;37.578;2022-11-03T04:58:58;99175.06;;;-0.62;85.12
35489;BME280;21602;55.670;37.578;2022-11-03T05:01:24;99172.59;;;-0.64;85.10
35489;BME280;21602;55.670;37.578;2022-11-03T05:03:50;99176.56;;;-0.92;85.76
35489;BME280;21602;55.670;37.578;2022-11-03T05:06:27;99176.22;;;-0.97;86.13
35489;BME280;21602;55.670;37.578;2022-11-03T05:09:10;99169.53;;;-1.08;86.33
35489;BME280;21602;55.670;37.578;2022-11-03T05:11:37;99175.91;;;-1.02;86.75
35489;BME280;21602;55.670;37.578;2022-11-03T05:14:06;99172.28;;;-1.10;86.53
35489;BME280;21602;55.670;37.578;2022-11-03T05:16:37;99182.94;;;-1.03;87.00
35489;BME280;21602;55.670;37.578;2022-11-03T05:19:03;99179.16;;;-1.17;86.81
35489;BME280;21602;55.670;37.578;2022-11-03T05:21:29;99178.50;;;-1.19;86.92
35489;BME280;21602;55.670;37.578;2022-11-03T05:23:56;99177.22;;;-1.07;86.67
35489;BME280;21602;55.670;37.578;2022-11-03T05:26:27;99186.41;;;-0.94;86.44
35489;BME280;21602;55.670;37.578;2022-11-03T05:28:54;99182.44;;;-0.90;86.01
35489;BME280;21602;55.670;37.578;2022-11-03T05:31:27;99189.19;;;-0.80;86.04
35489;BME280;21602;55.670;37.578;2022-11-03T05:34:01;99185.56;;;-0.70;85.27
35489;BME280;21602;55.670;37.578;2022-11-03T05:36:29;99182.44;;;-0.66;85.29
35489;BME280;21602;55.670;37.578;2022-11-03T05:39:00;99189.34;;;-0.57;85.19
35489;BME280;21602;55.670;37.578;2022-11-03T05:41:36;99181.44;;;-0.48;84.86
35489;BME280;21602;55.670;37.578;2022-11-03T05:44:07;99183.41;;;-0.42;84.44
35489;BME280;21602;55.670;37.578;2022-11-03T05:46:38;99190.09;;;-0.40;84.12
35489;BME280;21602;55.670;37.578;2022-11-03T05:49:13;99190.78;;;-0.54;84.26
35489;BME280;21602;55.670;37.578;2022-11-03T05:51:40;99194.91;;;-0.60;84.42
35489;BME280;21602;55.670;37.578;2022-11-03T05:54:06;99192.28;;;-0.60;84.46
35489;BME280;21602;55.670;37.578;2022-11-03T05:56:36;99200.13;;;-0.60;84.80
35489;BME280;21602;55.670;37.578;2022-11-03T05:59:02;99196.38;;;-0.65;84.60
35489;BME280;21602;55.670;37.578;2022-11-03T06:01:30;99203.56;;;-0.67;84.60
35489;BME280;21602;55.670;37.578;2022-11-03T06:04:00;99203.09;;;-0.71;84.54
35489;BME280;21602;55.670;37.578;2022-11-03T06:06:28;99205.06;;;-0.73;84.94
35489;BME280;21602;55.670;37.578;2022-11-03T06:08:54;99208.81;;;-0.67;84.88
35489;BME280;21602;55.670;37.578;2022-11-03T06:11:23;99194.41;;;-0.63;84.84
35489;BME280;21602;55.670;37.578;2022-11-03T06:13:49;99205.22;;;-0.58;84.77
35489;BME280;21602;55.670;37.578;2022-11-03T06:18:41;99200.63;;;-0.56;84.28
35489;BME280;21602;55.670;37.578;2022-11-03T06:21:08;99200.94;;;-0.59;84.36
35489;BME280;21602;55.670;37.578;2022-11-03T06:23:37;99197.03;;;-0.63;84.55
35489;BME280;21602;55.670;37.578;2022-11-03T06:26:04;99200.00;;;-0.66;84.60
35489;BME280;21602;55.670;37.578;2022-11-03T06:28:35;99203.91;;;-0.62;84.60
35489;BME280;21602;55.670;37.578;2022-11-03T06:33:47;99206.19;;;-0.51;84.30
35489;BME280;21602;55.670;37.578;2022-11-03T06:36:26;99207.16;;;-0.44;84.61
35489;BME280;21602;55.670;37.578;2022-11-03T06:38:55;99208.66;;;-0.41;84.25
35489;BME280;21602;55.670;37.578;2022-11-03T06:41:25;99211.44;;;-0.51;84.13
35489;BME280;21602;55.670;37.578;2022-11-03T06:43:51;99206.34;;;-0.53;84.73
35489;BME280;21602;55.670;37.578;2022-11-03T06:46:21;99204.22;;;-0.49;84.76
35489;BME280;21602;55.670;37.578;2022-11-03T06:48:48;99206.81;;;-0.33;84.87
35489;BME280;21602;55.670;37.578;2022-11-03T06:51:15;99201.84;;;-0.19;84.36
35489;BME280;21602;55.670;37.578;2022-11-03T06:53:42;99198.09;;;-0.17;83.65
35489;BME280;21602;55.670;37.578;2022-11-03T06:56:11;99202.03;;;-0.13;83.72
35489;BME280;21602;55.670;37.578;2022-11-03T06:58:37;99205.31;;;-0.19;83.65
35489;BME280;21602;55.670;37.578;2022-11-03T07:01:08;99210.56;;;-0.19;83.70
35489;BME280;21602;55.670;37.578;2022-11-03T07:03:35;99212.19;;;-0.18;83.39
35489;BME280;21602;55.670;37.578;2022-11-03T07:13:34;99218.72;;;-0.06;82.93
35489;BME280;21602;55.670;37.578;2022-11-03T07:15:59;99204.66;;;-0.21;83.01
35489;BME280;21602;55.670;37.578;2022-11-03T07:18:30;99205.69;;;-0.46;83.71
35489;BME280;21602;55.670;37.578;2022-11-03T07:20:58;99200.13;;;-0.52;84.13
35489;BME280;21602;55.670;37.578;2022-11-03T07:23:28;99212.56;;;-0.54;84.48
35489;BME280;21602;55.670;37.578;2022-11-03T07:25:59;99204.06;;;-0.47;84.70
35489;BME280;21602;55.670;37.578;2022-11-03T07:28:33;99209.78;;;-0.44;84.15
35489;BME280;21602;55.670;37.578;2022-11-03T07:31:00;99220.25;;;-0.36;84.02
35489;BME280;21602;55.670;37.578;2022-11-03T07:33:29;99217.66;;;-0.36;83.70
35489;BME280;21602;55.670;37.578;2022-11-03T07:35:56;99215.16;;;-0.29;83.94
35489;BME280;21602;55.670;37.578;2022-11-03T07:38:22;99224.19;;;-0.23;83.88
35489;BME280;21602;55.670;37.578;2022-11-03T07:40:49;99220.06;;;-0.18;83.67
35489;BME280;21602;55.670;37.578;2022-11-03T07:43:24;99225.94;;;-0.08;83.45
35489;BME280;21602;55.670;37.578;2022-11-03T07:45:52;99224.63;;;-0.04;83.15
35489;BME280;21602;55.670;37.578;2022-11-03T07:48:25;99224.78;;;-0.05;82.85
35489;BME280;21602;55.670;37.578;2022-11-03T07:50:55;99231.88;;;-0.14;83.21
35489;BME280;21602;55.670;37.578;2022-11-03T07:55:48;99226.16;;;-0.26;83.74
35489;BME280;21602;55.670;37.578;2022-11-03T07:58:32;99232.38;;;-0.27;83.63
35489;BME280;21602;55.670;37.578;2022-11-03T08:00:58;99221.06;;;-0.27;83.47
35489;BME280;21602;55.670;37.578;2022-11-03T08:03:26;99226.16;;;-0.34;83.81
35489;BME280;21602;55.670;37.578;2022-11-03T08:05:55;99230.13;;;-0.38;84.03
35489;BME280;21602;55.670;37.578;2022-11-03T08:08:20;99225.50;;;-0.44;84.23
35489;BME280;21602;55.670;37.578;2022-11-03T08:10:46;99224.88;;;-0.38;84.20
35489;BME280;21602;55.670;37.578;2022-11-03T08:13:11;99221.75;;;-0.33;83.93
35489;BME280;21602;55.670;37.578;2022-11-03T08:15:37;99220.09;;;-0.26;83.94
35489;BME280;21602;55.670;37.578;2022-11-03T08:18:02;99227.59;;;-0.15;83.96
35489;BME280;21602;55.670;37.578;2022-11-03T08:20:28;99224.50;;;-0.18;83.29
35489;BME280;21602;55.670;37.578;2022-11-03T08:22:55;99222.84;;;-0.19;83.40
35489;BME280;21602;55.670;37.578;2022-11-03T08:25:20;99214.97;;;-0.19;83.36
35489;BME280;21602;55.670;37.578;2022-11-03T08:27:46;99212.34;;;-0.19;83.54
35489;BME280;21602;55.670;37.578;2022-11-03T08:30:12;99214.97;;;-0.11;83.45
35489;BME280;21602;55.670;37.578;2022-11-03T08:32:37;99215.44;;;-0.08;82.78
35489;BME280;21602;55.670;37.578;2022-11-03T08:35:03;99221.00;;;-0.03;83.05
35489;BME280;21602;55.670;37.578;2022-11-03T08:37:29;99223.25;;;0.09;83.07
35489;BME280;21602;55.670;37.578;2022-11-03T08:39:54;99218.00;;;0.09;82.14
35489;BME280;21602;55.670;37.578;2022-11-03T08:42:20;99219.69;;;0.02;82.08
35489;BME280;21602;55.670;37.578;2022-11-03T08:44:45;99221.03;;;-0.11;82.18
35489;BME280;21602;55.670;37.578;2022-11-03T08:47:12;99219.09;;;-0.25;82.72
35489;BME280;21602;55.670;37.578;2022-11-03T08:49:37;99213.03;;;-0.26;82.91
35489;BME280;21602;55.670;37.578;2022-11-03T08:52:12;99211.59;;;-0.36;83.12
35489;BME280;21602;55.670;37.578;2022-11-03T08:54:38;99211.72;;;-0.30;83.38
35489;BME280;21602;55.670;37.578;2022-11-03T08:57:04;99204.34;;;-0.18;83.56
35489;BME280;21602;55.670;37.578;2022-11-03T08:59:29;99205.63;;;-0.14;82.78
35489;BME280;21602;55.670;37.578;2022-11-03T09:01:55;99200.22;;;-0.12;82.73
35489;BME280;21602;55.670;37.578;2022-11-03T09:04:21;99208.41;;;-0.15;83.04
35489;BME280;21602;55.670;37.578;2022-11-03T09:06:47;99202.50;;;-0.09;83.04
35489;BME280;21602;55.670;37.578;2022-11-03T09:09:12;99214.28;;;-0.05;82.74
35489;BME280;21602;55.670;37.578;2022-11-03T09:11:40;99205.09;;;-0.01;82.79
35489;BME280;21602;55.670;37.578;2022-11-03T09:14:06;99207.22;;;0.04;82.67
35489;BME280;21602;55.670;37.578;2022-11-03T09:16:31;99204.25;;;0.07;82.34
35489;BME280;21602;55.670;37.578;2022-11-03T09:18:57;99205.19;;;0.14;82.32
35489;BME280;21602;55.670;37.578;2022-11-03T09:21:22;99205.06;;;0.15;82.19
35489;BME280;21602;55.670;37.578;2022-11-03T09:23:48;99200.63;;;0.16;81.77
35489;BME280;21602;55.670;37.578;2022-11-03T09:26:13;99206.69;;;0.16;82.14
35489;BME280;21602;55.670;37.578;2022-11-03T09:28:39;99212.47;;;0.04;81.96
35489;BME280;21602;55.670;37.578;2022-11-03T09:31:05;99209.22;;;-0.07;82.26
35489;BME280;21602;55.670;37.578;2022-11-03T09:33:33;99218.41;;;-0.11;82.39
35489;BME280;21602;55.670;37.578;2022-11-03T09:35:59;99222.34;;;-0.15;82.33
35489;BME280;21602;55.670;37.578;2022-11-03T09:38:29;99215.84;;;-0.35;83.26
35489;BME280;21602;55.670;37.578;2022-11-03T09:40:57;99214.38;;;-0.38;83.65
35489;BME280;21602;55.670;37.578;2022-11-03T09:43:23;99223.06;;;-0.37;83.42
35489;BME280;21602;55.670;37.578;2022-11-03T09:45:49;99208.97;;;-0.36;83.47
35489;BME280;21602;55.670;37.578;2022-11-03T09:48:15;99220.13;;;-0.50;83.98
35489;BME280;21602;55.670;37.578;2022-11-03T09:50:40;99215.19;;;-0.45;83.86
35489;BME280;21602;55.670;37.578;2022-11-03T09:53:10;99216.00;;;-0.37;84.03
35489;BME280;21602;55.670;37.578;2022-11-03T09:55:36;99217.31;;;-0.33;83.10
35489;BME280;21602;55.670;37.578;2022-11-03T09:58:11;99218.28;;;-0.26;83.14
35489;BME280;21602;55.670;37.578;2022-11-03T10:00:38;99219.94;;;-0.33;83.08
35489;BME280;21602;55.670;37.578;2022-11-03T10:03:04;99221.41;;;-0.30;83.12
35489;BME280;21602;55.670;37.578;2022-11-03T10:05:29;99213.22;;;-0.27;83.14
35489;BME280;21602;55.670;37.578;2022-11-03T10:07:56;99214.81;;;-0.18;83.07
35489;BME280;21602;55.670;37.578;2022-11-03T10:10:23;99211.19;;;-0.09;82.60
35489;BME280;21602;55.670;37.578;2022-11-03T10:12:50;99212.66;;;-0.06;82.37
35489;BME280;21602;55.670;37.578;2022-11-03T10:15:18;99212.16;;;-0.10;82.21
35489;BME280;21602;55.670;37.578;2022-11-03T10:17:44;99206.78;;;-0.08;82.35
35489;BME280;21602;55.670;37.578;2022-11-03T10:20:11;99208.41;;;-0.07;81.93
35489;BME280;21602;55.670;37.578;2022-11-03T10:22:38;99212.53;;;-0.13;82.03
35489;BME280;21602;55.670;37.578;2022-11-03T10:27:52;99209.72;;;-0.19;82.40
35489;BME280;21602;55.670;37.578;2022-11-03T10:30:43;99205.97;;;-0.17;82.49
35489;BME280;21602;55.670;37.578;2022-11-03T10:33:54;99212.53;;;-0.13;82.42
35489;BME280;21602;55.670;37.578;2022-11-03T10:36:01;99205.63;;;-0.14;82.65
35489;BME280;21602;55.670;37.578;2022-11-03T10:38:29;99203.66;;;-0.12;82.71
35489;BME280;21602;55.670;37.578;2022-11-03T10:40:56;99211.00;;;0.01;82.54
35489;BME280;21602;55.670;37.578;2022-11-03T10:43:21;99207.69;;;0.15;82.30
35489;BME280;21602;55.670;37.578;2022-11-03T10:45:47;99211.94;;;0.16;81.58
35489;BME280;21602;55.670;37.578;2022-11-03T10:48:14;99204.69;;;0.18;81.78
35489;BME280;21602;55.670;37.578;2022-11-03T10:50:40;99199.94;;;0.14;81.77
35489;BME280;21602;55.670;37.578;2022-11-03T10:53:16;99199.81;;;0.15;81.72
35489;BME280;21602;55.670;37.578;2022-11-03T10:55:44;99204.25;;;0.15;81.60
35489;BME280;21602;55.670;37.578;2022-11-03T10:58:10;99196.38;;;0.07;81.69
35489;BME280;21602;55.670;37.578;2022-11-03T11:00:35;99199.91;;;-0.17;82.25
35489;BME280;21602;55.670;37.578;2022-11-03T11:03:01;99200.09;;;-0.19;82.60
35489;BME280;21602;55.670;37.578;2022-11-03T11:05:27;99198.09;;;-0.17;82.64
35489;BME280;21602;55.670;37.578;2022-11-03T11:07:53;99199.72;;;-0.16;82.84
35489;BME280;21602;55.670;37.578;2022-11-03T11:10:28;99202.50;;;-0.09;82.80
35489;BME280;21602;55.670;37.578;2022-11-03T11:18:05;99203.97;;;-0.07;82.64
35489;BME280;21602;55.670;37.578;2022-11-03T11:23:41;99201.53;;;-0.08;82.94
35489;BME280;21602;55.670;37.578;2022-11-03T11:28:42;99201.22;;;-0.13;83.01
35489;BME280;21602;55.670;37.578;2022-11-03T11:33:46;99199.41;;;-0.21;83.46
35489;BME280;21602;55.670;37.578;2022-11-03T11:36:19;99206.66;;;-0.23;83.68
35489;BME280;21602;55.670;37.578;2022-11-03T11:41:16;99204.47;;;-0.19;83.43
35489;BME280;21602;55.670;37.578;2022-11-03T11:43:42;99205.78;;;-0.15;83.25
35489;BME280;21602;55.670;37.578;2022-11-03T11:46:24;99205.78;;;-0.15;83.40
35489;BME280;21602;55.670;37.578;2022-11-03T11:51:27;99200.38;;;-0.14;83.18
35489;BME280;21602;55.670;37.578;2022-11-03T11:53:52;99206.09;;;-0.10;82.98
35489;BME280;21602;55.670;37.578;2022-11-03T11:56:18;99204.78;;;-0.14;83.07
35489;BME280;21602;55.670;37.578;2022-11-03T11:58:48;99212.03;;;-0.16;83.26
35489;BME280;21602;55.670;37.578;2022-11-03T12:03:53;99212.22;;;-0.26;83.28
35489;BME280;21602;55.670;37.578;2022-11-03T12:06:41;99205.16;;;-0.17;83.56
35489;BME280;21602;55.670;37.578;2022-11-03T12:09:06;99206.44;;;-0.13;83.31
35489;BME280;21602;55.670;37.578;2022-11-03T12:19:43;99203.97;;;-0.07;83.38
35489;BME280;21602;55.670;37.578;2022-11-03T12:22:09;99208.53;;;-0.01;83.01
35489;BME280;21602;55.670;37.578;2022-11-03T12:24:37;99208.03;;;0.04;82.90
35489;BME280;21602;55.670;37.578;2022-11-03T12:27:14;99200.47;;;0.09;83.11
35489;BME280;21602;55.670;37.578;2022-11-03T12:29:41;99199.81;;;0.15;82.95
35489;BME280;21602;55.670;37.578;2022-11-03T12:32:06;99201.41;;;0.24;82.71
35489;BME280;21602;55.670;37.578;2022-11-03T12:34:32;99197.91;;;0.32;82.46
35489;BME280;21602;55.670;37.578;2022-11-03T12:36:58;99203.16;;;0.32;82.37
35489;BME280;21602;55.670;37.578;2022-11-03T12:39:23;99191.66;;;0.33;82.40
35489;BME280;21602;55.670;37.578;2022-11-03T12:41:49;99194.34;;;0.25;82.58
35489;BME280;21602;55.670;37.578;2022-11-03T12:44:14;99198.63;;;0.18;82.64
35489;BME280;21602;55.670;37.578;2022-11-03T12:46:40;99197.31;;;0.14;83.18
35489;BME280;21602;55.670;37.578;2022-11-03T12:49:05;99203.88;;;0.18;83.01
35489;BME280;21602;55.670;37.578;2022-11-03T12:51:31;99209.47;;;0.15;83.08
35489;BME280;21602;55.670;37.578;2022-11-03T12:53:56;99203.06;;;0.17;82.86
35489;BME280;21602;55.670;37.578;2022-11-03T12:56:22;99206.50;;;0.18;83.26
35489;BME280;21602;55.670;37.578;2022-11-03T12:58:48;99202.56;;;0.22;83.18
35489;BME280;21602;55.670;37.578;2022-11-03T13:01:13;99199.22;;;0.28;83.01
35489;BME280;21602;55.670;37.578;2022-11-03T13:03:39;99200.91;;;0.29;82.73
35489;BME280;21602;55.670;37.578;2022-11-03T13:06:04;99204.97;;;0.32;83.00
35489;BME280;21602;55.670;37.578;2022-11-03T13:08:34;99208.72;;;0.37;82.90
35489;BME280;21602;55.670;37.578;2022-11-03T13:11:00;99201.13;;;0.42;82.86
35489;BME280;21602;55.670;37.578;2022-11-03T13:13:25;99207.41;;;0.33;82.69
35489;BME280;21602;55.670;37.578;2022-11-03T13:15:51;99208.09;;;0.27;83.02
35489;BME280;21602;55.670;37.578;2022-11-03T13:18:20;99204.84;;;0.25;83.27
35489;BME280;21602;55.670;37.578;2022-11-03T13:20:47;99212.03;;;0.31;83.47
35489;BME280;21602;55.670;37.578;2022-11-03T13:23:13;99216.94;;;0.34;83.29
35489;BME280;21602;55.670;37.578;2022-11-03T13:25:38;99205.13;;;0.38;83.19
35489;BME280;21602;55.670;37.578;2022-11-03T13:28:07;99205.56;;;0.42;82.99
35489;BME280;21602;55.670;37.578;2022-11-03T13:30:33;99207.91;;;0.37;82.98
35489;BME280;21602;55.670;37.578;2022-11-03T13:32:58;99218.91;;;0.32;83.04
35489;BME280;21602;55.670;37.578;2022-11-03T13:35:24;99212.72;;;0.25;83.35
35489;BME280;21602;55.670;37.578;2022-11-03T13:37:49;99215.66;;;0.30;83.39
35489;BME280;21602;55.670;37.578;2022-11-03T13:40:15;99215.00;;;0.28;83.39
35489;BME280;21602;55.670;37.578;2022-11-03T13:42:41;99221.53;;;0.32;83.33
35489;BME280;21602;55.670;37.578;2022-11-03T13:45:07;99226.47;;;0.35;83.30
35489;BME280;21602;55.670;37.578;2022-11-03T13:47:33;99225.16;;;0.31;83.34
35489;BME280;21602;55.670;37.578;2022-11-03T13:49:58;99225.47;;;0.36;83.42
35489;BME280;21602;55.670;37.578;2022-11-03T13:52:25;99216.56;;;0.45;83.12
35489;BME280;21602;55.670;37.578;2022-11-03T13:54:51;99215.88;;;0.51;83.07
35489;BME280;21602;55.670;37.578;2022-11-03T13:57:17;99218.19;;;0.46;82.77